Cape Hatteras Naval Facility, North Carolina
Current Conditions -  °F | °C
As of 10:51 PM on Wednesday 22 Oct 2014 (Local Time) from KHSE Reporting Station
Overcast Overcast  
Wind Chill: 57°   Ceiling: 2500
Heat Index: 57°   Visibility: 10mi
Dew Point: 50°   Wind: 15mph
Humidity: 77%   Direction: 320°NW
Pressure: 29.9"   Gusts: 26mph
Location:  35.2677°N, 75.5426°W
Report Text: KHSE 230251Z AUTO 32013G23KT 10SM BKN025 OVC030 14/10 A2990 RMK AO2 PK WND 32028/0230 SLP125 T01390100 52005 TSNO
Loading
Personal Weather Stations






























Interactive Weather Map
Tropical Storm Tracking
New forecast layout! Learn more

10-Day Weather Forecast

Advertisements
Track Severe Weather on mobile